Kemi-Tornio

Airport
ICAO code: 
EFKE
Summary
ICAO Region: 
EUR
Territory: 
Location: 
Kemi,
Coordinates: 
Aerial View: 
65° 46' 42.828" N, 24° 34' 53.043" E
Metar
Observation
EFKE 200150Z AUTO 35010KT CAVOK M02/M06 Q0984
Station
Kemi
Date/Time
2022-01-20 01:50:00
Wind direction
350°
Wind speed
10 kts
Lowest cloud amount
clouds and visibility OK
Temperature
-2°C
Dew point
-6°C
Humidity
74%
QNH
984 hPa
Weather condition
n/a

Description

Kemi-Tornio Airport is an airport north of the city of Kemi, near the town of Lautiosaari east of the Kemijoki (Kemi River) in Finland. The airport is 6 km from Kemi and 18 km from the city of Tornio.

Climatology

Humid Continental climate (Köppen climate classification Dfb) - Variable weather patterns and a large seasonal temperature variance. Summers are often warm and humid with frequent thunderstorms and winters can be very cold with frequent snowfall and persistent snow cover.

Runways

Designator Length Width Surface Rops
18/36 2503 48 ASP Yes/Yes
Airport map: 
Aerial View: 

Accidents and Serious Incidents at or in the vicinity of EFKE

SKYbrary Partners:

Safety knowledge contributed by: